createdAt,value
2018-08-12T00:00:04.450Z,35.8
2018-08-12T00:00:54.538Z,35.8
2018-08-12T00:01:44.835Z,35.8
2018-08-12T00:02:34.968Z,35.8
2018-08-12T00:03:24.759Z,35.8
2018-08-12T00:04:15.108Z,35.7
2018-08-12T00:05:04.009Z,35.7
2018-08-12T00:05:55.221Z,35.7
2018-08-12T00:06:44.948Z,35.7
2018-08-12T00:07:35.000Z,35.7
2018-08-12T00:08:25.635Z,35.7
2018-08-12T00:09:15.190Z,35.7
2018-08-12T00:10:19.582Z,35.6
2018-08-12T00:10:54.701Z,35.6
2018-08-12T00:11:45.343Z,35.6
2018-08-12T00:12:35.434Z,35.6
2018-08-12T00:13:25.983Z,35.6
2018-08-12T00:14:15.533Z,35.6
2018-08-12T00:15:06.357Z,35.6
2018-08-12T00:15:56.219Z,35.6
2018-08-12T00:16:45.465Z,35.6
2018-08-12T00:17:35.885Z,35.6
2018-08-12T00:18:25.898Z,35.6
2018-08-12T00:37:18.985Z,35.4
2018-08-12T00:38:09.529Z,35.4
2018-08-12T00:38:59.828Z,35.4
2018-08-12T00:39:49.615Z,35.4
2018-08-12T00:40:39.098Z,35.4
2018-08-12T00:41:29.695Z,35.4
2018-08-12T00:42:20.048Z,35.4
2018-08-12T00:43:10.134Z,35.4
2018-08-12T00:44:00.207Z,35.4
2018-08-12T00:44:48.806Z,35.4
2018-08-12T00:45:40.299Z,35.4
2018-08-12T00:46:30.369Z,35.4
2018-08-12T00:47:19.881Z,35.4
2018-08-12T00:48:10.310Z,35.4
2018-08-12T00:49:00.003Z,35.3
2018-08-12T00:49:50.084Z,35.3
2018-08-12T00:50:40.703Z,35.3
2018-08-12T00:51:30.757Z,35.3
2018-08-12T00:52:20.942Z,35.3
2018-08-12T00:53:10.653Z,35.3
2018-08-12T00:54:00.677Z,35.3
2018-08-12T00:54:51.014Z,35.3
2018-08-12T00:55:41.075Z,35.3
2018-08-12T00:56:31.166Z,35.3
2018-08-12T00:57:20.369Z,35.3
2018-08-12T00:58:10.412Z,35.3
2018-08-12T00:59:00.196Z,35.3
2018-08-12T00:59:50.838Z,35.3
2018-08-12T01:00:41.154Z,35.3
2018-08-12T01:01:30.356Z,35.3
2018-08-12T01:02:21.324Z,35.3
2018-08-12T01:03:10.519Z,35.3
2018-08-12T01:04:01.137Z,35.2
2018-08-12T01:04:51.501Z,35.3
2018-08-12T01:05:41.528Z,35.3
2018-08-12T01:06:31.322Z,35.2
2018-08-12T01:07:21.388Z,35.2
2018-08-12T01:08:11.997Z,35.2
2018-08-12T01:09:02.087Z,35.2
2018-08-12T01:09:51.654Z,35.2
2018-08-12T01:10:41.692Z,35.2
2018-08-12T01:11:32.031Z,35.2
2018-08-12T01:12:21.785Z,35.2
2018-08-12T01:13:12.130Z,35.2
2018-08-12T01:14:02.197Z,35.2
2018-08-12T01:14:51.472Z,35.1
2018-08-12T01:15:41.752Z,35.1
2018-08-12T01:16:32.346Z,35.1
2018-08-12T01:17:22.419Z,35.1
2018-08-12T01:18:12.475Z,35.1
2018-08-12T01:19:02.558Z,35.1
2018-08-12T01:19:52.100Z,35.1
2018-08-12T01:20:42.995Z,35.1
2018-08-12T01:21:32.487Z,35.1
2018-08-12T01:22:22.839Z,35.1
2018-08-12T01:23:13.013Z,35.1
2018-08-12T01:24:02.681Z,35.1
2018-08-12T01:24:52.481Z,35.1
2018-08-12T01:25:42.540Z,35.1
2018-08-12T01:26:32.870Z,35.1
2018-08-12T01:27:22.987Z,35.1
2018-08-12T01:28:13.021Z,35.1
2018-08-12T01:29:03.671Z,35.1
2018-08-12T01:29:53.143Z,35.1
2018-08-12T01:30:43.845Z,35.1
2018-08-12T01:31:33.862Z,35.1
2018-08-12T01:32:23.607Z,35.1
2018-08-12T01:33:13.958Z,35.1
2018-08-12T01:34:03.735Z,35.1
2018-08-12T01:34:53.810Z,35.1
2018-08-12T01:35:44.175Z,35
2018-08-12T01:36:33.938Z,35
2018-08-12T01:37:24.019Z,35
2018-08-12T01:38:14.211Z,35
2018-08-12T01:39:03.560Z,35
2018-08-12T01:39:54.173Z,35
2018-08-12T01:40:44.247Z,35
2018-08-12T01:41:33.742Z,35
2018-08-12T01:42:23.787Z,34.9
2018-08-12T01:43:14.441Z,35
2018-08-12T01:44:04.705Z,35
2018-08-12T01:44:54.364Z,34.9
2018-08-12T01:45:44.066Z,34.9
2018-08-12T01:46:34.442Z,34.9
2018-08-12T01:47:24.448Z,34.9
2018-08-12T01:48:15.123Z,34.9
2018-08-12T01:49:04.664Z,34.9
2018-08-12T01:49:54.629Z,34.9
2018-08-12T01:50:44.963Z,34.9
2018-08-12T01:51:35.388Z,34.9
2018-08-12T01:52:25.418Z,34.9
2018-08-12T01:53:14.934Z,34.9
2018-08-12T01:54:05.271Z,34.9
2018-08-12T01:54:55.102Z,34.9
2018-08-12T01:55:45.102Z,34.9
2018-08-12T01:56:35.571Z,34.9
2018-08-12T01:57:25.522Z,34.9
2018-08-12T01:58:15.875Z,34.9
2018-08-12T01:59:05.667Z,34.9
2018-08-12T01:59:54.897Z,34.8
2018-08-12T02:00:45.790Z,34.8
2018-08-12T02:01:36.127Z,34.8
2018-08-12T02:02:25.896Z,34.8
2018-08-12T02:03:15.968Z,34.8
2018-08-12T02:04:05.527Z,34.8
2018-08-12T02:04:55.518Z,34.8
2018-08-12T02:05:46.193Z,34.8
2018-08-12T02:06:36.254Z,34.8
2018-08-12T02:07:26.108Z,34.8
2018-08-12T02:08:16.648Z,34.8
2018-08-12T02:09:05.858Z,34.8
2018-08-12T02:09:56.495Z,34.8
2018-08-12T02:10:46.587Z,34.8
2018-08-12T02:11:36.049Z,34.8
2018-08-12T02:12:26.428Z,34.8
2018-08-12T02:13:16.451Z,34.8
2018-08-12T02:14:07.093Z,34.8
2018-08-12T02:14:56.053Z,34.8
2018-08-12T02:15:46.398Z,34.8
2018-08-12T02:16:37.000Z,34.8
2018-08-12T02:17:27.041Z,34.7
2018-08-12T02:18:16.867Z,34.7
2018-08-12T02:19:07.180Z,34.7
2018-08-12T02:19:56.403Z,34.7
2018-08-12T02:20:47.335Z,34.7
2018-08-12T02:21:36.512Z,34.7
2018-08-12T02:22:26.870Z,34.7
2018-08-12T02:23:15.805Z,34.7
2018-08-12T02:24:07.967Z,34.7
2018-08-12T02:24:57.138Z,34.6
2018-08-12T02:25:47.427Z,34.7
2018-08-12T02:26:37.817Z,34.7
2018-08-12T02:27:27.602Z,34.7
2018-08-12T02:28:17.893Z,34.7
2018-08-12T02:29:07.667Z,34.6
2018-08-12T02:29:58.309Z,34.6
2018-08-12T02:30:48.091Z,34.6
2018-08-12T02:31:37.849Z,34.6
2018-08-12T02:32:28.314Z,34.6
2018-08-12T02:33:18.043Z,34.6
2018-08-12T02:34:08.087Z,34.6
2018-08-12T02:34:58.431Z,34.6
2018-08-12T02:35:48.491Z,34.6
2018-08-12T02:36:38.587Z,34.6
2018-08-12T02:37:28.058Z,34.6
2018-08-12T02:38:18.961Z,34.6
2018-08-12T02:39:08.745Z,34.6
2018-08-12T02:39:59.084Z,34.6
2018-08-12T02:40:48.883Z,34.6
2018-08-12T02:41:38.949Z,34.6
2018-08-12T02:42:29.031Z,34.6
2018-08-12T02:43:19.106Z,34.6
2018-08-12T02:44:08.834Z,34.6
2018-08-12T02:44:59.495Z,34.6
2018-08-12T02:45:49.396Z,34.5
2018-08-12T02:46:39.726Z,34.6
2018-08-12T02:47:29.427Z,34.5
2018-08-12T02:48:19.485Z,34.5
2018-08-12T02:49:09.528Z,34.5
2018-08-12T02:49:59.693Z,34.5
2018-08-12T02:50:49.343Z,34.5
2018-08-12T02:51:39.683Z,34.5
2018-08-12T02:52:29.753Z,34.5
2018-08-12T02:53:19.507Z,34.5
2018-08-12T02:54:10.174Z,34.5
2018-08-12T02:55:00.273Z,34.5
2018-08-12T02:55:49.464Z,34.5
2018-08-12T02:56:39.814Z,34.5
2018-08-12T02:57:30.120Z,34.5
2018-08-12T02:58:19.621Z,34.5
2018-08-12T02:59:09.426Z,34.4
2018-08-12T02:59:59.812Z,34.5
2018-08-12T03:00:50.415Z,34.4
2018-08-12T03:01:40.721Z,34.4
2018-08-12T03:02:29.946Z,34.4
2018-08-12T03:03:20.283Z,34.4
2018-08-12T03:04:10.632Z,34.4
2018-08-12T03:05:00.957Z,34.4
2018-08-12T03:05:50.882Z,34.4
2018-08-12T03:06:41.127Z,34.4
2018-08-12T03:07:30.616Z,34.4
2018-08-12T03:08:21.236Z,34.4
2018-08-12T03:09:10.766Z,34.4
2018-08-12T03:10:01.412Z,34.4
2018-08-12T03:10:51.457Z,34.4
2018-08-12T03:11:40.067Z,34.4
2018-08-12T03:12:31.013Z,34.4
2018-08-12T03:13:21.086Z,34.4
2018-08-12T03:14:11.460Z,34.4
2018-08-12T03:15:01.797Z,34.4
2018-08-12T03:15:51.843Z,34.4
2018-08-12T03:16:41.341Z,34.4
2018-08-12T03:17:31.928Z,34.4
2018-08-12T03:18:21.480Z,34.4
2018-08-12T03:19:11.816Z,34.4
2018-08-12T03:20:01.117Z,34.4
2018-08-12T03:20:50.753Z,34.3
2018-08-12T03:21:41.170Z,34.4
2018-08-12T03:22:33.283Z,34.3
2018-08-12T03:23:22.134Z,34.3
2018-08-12T03:24:12.226Z,34.3
2018-08-12T03:25:01.403Z,34.3
2018-08-12T03:25:52.373Z,34.3
2018-08-12T03:26:41.801Z,34.3
2018-08-12T03:27:32.184Z,34.3
2018-08-12T03:28:22.492Z,34.3
2018-08-12T03:29:12.003Z,34.3
2018-08-12T03:30:03.690Z,34.3
2018-08-12T03:30:52.969Z,34.3
2018-08-12T03:31:41.330Z,34.3
2018-08-12T03:32:31.376Z,34.3
2018-08-12T03:33:22.930Z,34.3
2018-08-12T03:34:12.952Z,34.3
2018-08-12T03:35:03.301Z,34.3
2018-08-12T03:35:52.828Z,34.3
2018-08-12T03:36:43.438Z,34.3
2018-08-12T03:37:33.514Z,34.3
2018-08-12T03:38:23.248Z,34.3
2018-08-12T03:39:12.514Z,34.3
2018-08-12T03:40:03.629Z,34.3
2018-08-12T03:40:53.717Z,34.2
2018-08-12T03:41:43.769Z,34.3
2018-08-12T03:42:33.860Z,34.3
2018-08-12T03:43:23.355Z,34.3
2018-08-12T03:44:14.031Z,34.2
2018-08-12T03:45:03.840Z,34.3
2018-08-12T03:45:53.538Z,34.2
2018-08-12T03:46:44.259Z,34.2
2018-08-12T03:47:34.265Z,34.2
2018-08-12T03:48:24.017Z,34.2
2018-08-12T03:49:14.107Z,34.2
2018-08-12T03:50:04.177Z,34.2
2018-08-12T03:50:54.561Z,34.2
2018-08-12T03:51:43.976Z,34.2
2018-08-12T03:52:34.078Z,34.2
2018-08-12T03:53:24.694Z,34.2
2018-08-12T03:54:14.738Z,34.2
2018-08-12T03:55:04.571Z,34.2
2018-08-12T03:55:54.584Z,34.1
2018-08-12T03:56:44.981Z,34.1
2018-08-12T03:57:34.741Z,34.1
2018-08-12T03:58:23.946Z,34.1
2018-08-12T03:59:14.886Z,34.1
2018-08-12T04:00:04.686Z,34.1
2018-08-12T04:00:55.261Z,34.1
2018-08-12T04:01:44.760Z,34.1
2018-08-12T04:02:35.107Z,34.1
2018-08-12T04:03:25.162Z,34.1
2018-08-12T04:04:14.385Z,34.1
2018-08-12T04:05:05.314Z,34.1
2018-08-12T04:05:55.071Z,34.1
2018-08-12T04:06:45.713Z,34.1
2018-08-12T04:07:34.917Z,34.1
2018-08-12T04:08:25.810Z,34.1
2018-08-12T04:09:15.332Z,34.1
2018-08-12T04:10:05.970Z,34.1
2018-08-12T04:10:55.154Z,34.1
2018-08-12T04:11:46.063Z,34.1
2018-08-12T04:12:36.113Z,34.1
2018-08-12T04:13:25.915Z,34.1
2018-08-12T04:14:16.258Z,34.1
2018-08-12T04:15:06.325Z,34.1
2018-08-12T04:15:56.091Z,34.1
2018-08-12T04:16:45.991Z,34.1
2018-08-12T04:17:36.236Z,34.1
2018-08-12T04:18:26.031Z,34.1
2018-08-12T04:19:15.827Z,34.1
2018-08-12T04:20:05.697Z,34.1
2018-08-12T04:20:56.508Z,34
2018-08-12T04:21:46.884Z,34
2018-08-12T04:22:36.941Z,34.1
2018-08-12T04:23:26.719Z,34
2018-08-12T04:24:17.049Z,34
2018-08-12T04:25:07.110Z,34
2018-08-12T04:25:56.641Z,34
2018-08-12T04:26:47.238Z,34
2018-08-12T04:27:37.006Z,34
2018-08-12T04:28:26.807Z,34
2018-08-12T04:29:17.456Z,34
2018-08-12T04:30:07.516Z,34
2018-08-12T04:30:57.020Z,34
2018-08-12T04:31:47.388Z,34
2018-08-12T04:32:36.817Z,33.9
2018-08-12T04:33:27.275Z,33.9
2018-08-12T04:34:17.854Z,33.9
2018-08-12T04:35:07.867Z,33.9
2018-08-12T04:35:57.666Z,33.9
2018-08-12T04:36:48.016Z,33.9
2018-08-12T04:37:37.857Z,33.9
2018-08-12T04:38:26.995Z,33.9
2018-08-12T04:39:17.638Z,33.9
2018-08-12T04:40:06.817Z,33.9
2018-08-12T04:40:58.073Z,33.9
2018-08-12T04:41:47.252Z,33.9
2018-08-12T04:42:37.354Z,33.9
2018-08-12T04:43:27.951Z,33.9
2018-08-12T04:44:17.434Z,33.9
2018-08-12T04:45:08.092Z,33.9
2018-08-12T04:45:59.247Z,33.9
2018-08-12T04:46:47.947Z,33.9
2018-08-12T04:47:38.574Z,33.9
2018-08-12T04:48:28.683Z,33.9
2018-08-12T05:06:43.077Z,33.8
2018-08-12T05:07:32.930Z,33.8
2018-08-12T05:08:22.091Z,33.8
2018-08-12T05:09:13.528Z,33.8
2018-08-12T05:10:03.680Z,33.8
2018-08-12T05:10:53.665Z,33.8
2018-08-12T05:11:43.480Z,33.8
2018-08-12T05:12:33.807Z,33.8
2018-08-12T05:13:23.826Z,33.8
2018-08-12T05:14:13.926Z,33.8
2018-08-12T05:15:03.404Z,33.8
2018-08-12T05:15:53.755Z,33.8
2018-08-12T05:16:42.688Z,33.8
2018-08-12T05:17:33.606Z,33.8
2018-08-12T05:18:23.696Z,33.8
2018-08-12T05:19:14.352Z,33.8
2018-08-12T05:20:03.267Z,33.8
2018-08-12T05:20:53.561Z,33.8
2018-08-12T05:21:44.525Z,33.8
2018-08-12T05:22:34.536Z,33.8
2018-08-12T05:23:24.683Z,33.8
2018-08-12T05:24:13.831Z,33.8
2018-08-12T05:25:04.800Z,33.8
2018-08-12T05:25:54.545Z,33.8
2018-08-12T05:26:44.860Z,33.8
2018-08-12T05:27:34.421Z,33.8
2018-08-12T05:28:24.256Z,33.8
2018-08-12T05:29:15.062Z,33.8
2018-08-12T05:30:05.167Z,33.8
2018-08-12T05:30:54.922Z,33.8
2018-08-12T05:31:44.985Z,33.8
2018-08-12T05:32:33.652Z,33.7
2018-08-12T05:33:24.822Z,33.8
2018-08-12T05:34:15.130Z,33.7
2018-08-12T05:35:04.720Z,33.7
2018-08-12T05:35:55.290Z,33.8
2018-08-12T05:36:45.375Z,33.8
2018-08-12T05:37:35.491Z,33.8
2018-08-12T05:38:25.167Z,33.7
2018-08-12T05:39:14.500Z,33.8
2018-08-12T05:40:05.030Z,33.8
2018-08-12T05:40:55.969Z,33.8
2018-08-12T05:41:45.459Z,33.7
2018-08-12T05:42:35.510Z,33.7
2018-08-12T05:43:25.621Z,33.7
2018-08-12T05:44:15.629Z,33.7
2018-08-12T05:45:04.936Z,33.7
2018-08-12T05:45:56.298Z,33.7
2018-08-12T05:46:46.092Z,33.7
2018-08-12T05:47:36.171Z,33.7
2018-08-12T05:48:26.025Z,33.7
2018-08-12T05:49:15.989Z,33.7
2018-08-12T05:50:06.101Z,33.7
2018-08-12T05:50:55.974Z,33.7
2018-08-12T05:51:46.827Z,33.7
2018-08-12T05:52:36.560Z,33.7
2018-08-12T05:53:26.713Z,33.7
2018-08-12T05:54:16.698Z,33.7
2018-08-12T05:55:07.067Z,33.7
2018-08-12T05:55:56.825Z,33.7
2018-08-12T05:56:46.874Z,33.7
2018-08-12T05:57:36.433Z,33.7
2018-08-12T05:58:26.836Z,33.7
2018-08-12T05:59:15.369Z,33.7
2018-08-12T06:00:07.465Z,33.7
2018-08-12T06:00:56.941Z,33.7
2018-08-12T06:01:47.275Z,33.7
2018-08-12T06:02:38.167Z,33.6
2018-08-12T06:03:27.785Z,33.7
2018-08-12T06:04:17.454Z,33.7
2018-08-12T06:05:07.545Z,33.7
2018-08-12T06:05:57.598Z,33.6
2018-08-12T06:06:47.417Z,33.6
2018-08-12T06:07:37.256Z,33.7
2018-08-12T06:08:26.850Z,33.6
2018-08-12T06:09:17.345Z,33.7
2018-08-12T06:10:07.695Z,33.6
2018-08-12T06:10:57.472Z,33.6
2018-08-12T06:11:47.829Z,33.6
2018-08-12T06:12:37.311Z,33.6
2018-08-12T06:13:27.663Z,33.6
2018-08-12T06:14:18.103Z,33.6
2018-08-12T06:15:07.802Z,33.6
2018-08-12T06:15:57.932Z,33.6
2018-08-12T06:16:48.191Z,33.6
2018-08-12T06:17:39.391Z,33.6
2018-08-12T06:18:27.781Z,33.6
2018-08-12T06:19:18.877Z,33.6
2018-08-12T06:20:08.702Z,34.3
2018-08-12T06:20:58.444Z,41.8
2018-08-12T06:21:48.800Z,43.2
2018-08-12T06:22:38.571Z,45.9
2018-08-12T06:23:28.658Z,47.9
2018-08-12T06:24:18.990Z,48.6
2018-08-12T06:25:08.778Z,48.5
2018-08-12T06:25:59.444Z,48.1
2018-08-12T06:26:49.151Z,47.7
2018-08-12T06:27:39.288Z,47.3
2018-08-12T06:28:29.429Z,46.9
2018-08-12T06:29:18.810Z,46.6
2018-08-12T06:30:09.445Z,46.2
2018-08-12T06:30:59.816Z,45.8
2018-08-12T06:31:49.638Z,45.5
2018-08-12T06:32:39.730Z,45.1
2018-08-12T06:33:28.851Z,44.8
2018-08-12T06:34:19.855Z,44.5
2018-08-12T06:35:09.572Z,44.2
2018-08-12T06:35:58.575Z,43.9
2018-08-12T06:36:50.004Z,43.6
2018-08-12T06:37:39.801Z,43.3
2018-08-12T06:38:29.517Z,43
2018-08-12T06:39:19.871Z,42.8
2018-08-12T06:40:09.395Z,42.5
2018-08-12T06:41:00.310Z,42.3
2018-08-12T06:41:50.644Z,42
2018-08-12T06:42:40.201Z,41.8
2018-08-12T06:43:30.474Z,41.6
2018-08-12T06:44:20.343Z,41.4
2018-08-12T06:45:10.889Z,41.2
2018-08-12T06:46:00.121Z,43.4
2018-08-12T06:46:50.432Z,46.3
2018-08-12T06:47:40.467Z,47.5
2018-08-12T06:48:30.854Z,49.4
2018-08-12T06:49:20.623Z,50.4
2018-08-12T06:50:10.209Z,50.6
2018-08-12T06:51:00.779Z,50.6
2018-08-12T06:51:52.316Z,50.6
2018-08-12T06:52:41.198Z,50.8
2018-08-12T06:53:31.561Z,51.1
2018-08-12T06:54:21.037Z,51.4
2018-08-12T06:55:11.157Z,51.6
2018-08-12T06:56:00.496Z,51.8
2018-08-12T06:56:51.568Z,51.9
2018-08-12T06:57:41.279Z,52
2018-08-12T06:58:31.641Z,52.1
2018-08-12T06:59:21.400Z,52.3
2018-08-12T07:01:01.501Z,52.5
2018-08-12T07:01:51.876Z,52.6
2018-08-12T07:02:42.282Z,52.7
2018-08-12T07:03:30.945Z,52.8
2018-08-12T07:04:21.346Z,52.9
2018-08-12T07:05:11.959Z,52.9
2018-08-12T07:06:02.017Z,53
2018-08-12T07:06:51.792Z,53.1
2018-08-12T07:07:42.092Z,53.2
2018-08-12T07:08:31.607Z,53.3
2018-08-12T07:09:21.755Z,53.3
2018-08-12T07:10:12.359Z,53.4
2018-08-12T07:11:02.598Z,53.4
2018-08-12T07:11:52.379Z,53.5
2018-08-12T07:12:42.427Z,53.6
2018-08-12T07:13:32.000Z,53.6
2018-08-12T07:14:22.561Z,53.7
2018-08-12T07:15:12.661Z,53.8
2018-08-12T07:16:02.771Z,53.9
2018-08-12T07:16:52.457Z,53.9
2018-08-12T07:17:42.636Z,54.1
2018-08-12T07:18:33.446Z,54.1
2018-08-12T07:19:23.244Z,54.3
2018-08-12T07:20:13.308Z,54.3
2018-08-12T07:21:03.071Z,54.5
2018-08-12T07:21:53.393Z,54.6
2018-08-12T07:22:42.941Z,54.7
2018-08-12T07:23:33.046Z,54.7
2018-08-12T07:24:23.609Z,54.8
2018-08-12T07:25:13.405Z,54.9
2018-08-12T07:26:03.800Z,54.9
2018-08-12T07:26:53.789Z,55
2018-08-12T07:27:43.029Z,54.9
2018-08-12T07:28:33.952Z,54.7
2018-08-12T07:29:23.768Z,54.4
2018-08-12T07:30:14.315Z,54.1
2018-08-12T07:31:03.863Z,53.8
2018-08-12T07:31:54.233Z,53.5
2018-08-12T07:32:44.880Z,53.1
2018-08-12T07:33:34.610Z,52.7
2018-08-12T07:34:24.672Z,52.1
2018-08-12T07:35:14.720Z,51.5
2018-08-12T07:36:04.533Z,50.8
2018-08-12T07:36:54.538Z,50.1
2018-08-12T07:37:44.942Z,49.4
2018-08-12T07:38:34.924Z,48.8
2018-08-12T07:39:25.059Z,48.1
2018-08-12T07:40:14.942Z,47.4
2018-08-12T07:41:05.184Z,46.7
2018-08-12T07:41:54.185Z,45.9
2018-08-12T07:42:44.769Z,45.2
2018-08-12T07:43:34.529Z,44.4
2018-08-12T07:44:24.619Z,43.7
2018-08-12T07:45:14.901Z,43.1
2018-08-12T07:46:05.300Z,42.5
2018-08-12T07:46:55.050Z,41.9
2018-08-12T07:47:45.114Z,41.5
2018-08-12T07:48:35.270Z,41.3
2018-08-12T07:49:25.289Z,41.4
2018-08-12T07:50:15.655Z,41.4
2018-08-12T07:51:05.227Z,41.5
2018-08-12T07:51:55.742Z,41.6
2018-08-12T07:52:45.837Z,41.8
2018-08-12T07:53:35.904Z,41.8
2018-08-12T07:54:26.239Z,41.8
2018-08-12T07:55:16.010Z,41.4
2018-08-12T07:56:06.090Z,41
2018-08-12T07:56:56.143Z,40.6
2018-08-12T07:57:46.195Z,40.1
2018-08-12T07:58:36.266Z,39.7
2018-08-12T07:59:26.616Z,39.3
2018-08-12T08:00:15.855Z,38.8
2018-08-12T08:01:06.412Z,38.4
2018-08-12T08:01:56.769Z,38.1
2018-08-12T08:02:46.828Z,37.8
2018-08-12T08:03:36.587Z,37.7
2018-08-12T08:04:26.668Z,37.6
2018-08-12T08:05:16.750Z,37.4
2018-08-12T08:06:06.933Z,37.1
2018-08-12T08:06:56.888Z,36.7
2018-08-12T08:07:46.669Z,36.5
2018-08-12T08:08:37.024Z,36.5
2018-08-12T08:09:27.075Z,36.6
2018-08-12T08:10:17.228Z,36.6
2018-08-12T08:11:07.270Z,36.8
2018-08-12T08:11:57.328Z,36.9
2018-08-12T08:12:47.739Z,37
2018-08-12T08:13:37.122Z,37.1
2018-08-12T08:14:27.791Z,37.3
2018-08-12T08:15:17.283Z,37.4
2018-08-12T08:16:07.403Z,37.6
2018-08-12T08:16:57.210Z,37.8
2018-08-12T08:17:47.782Z,38
2018-08-12T08:18:37.872Z,38.2
2018-08-12T08:19:27.944Z,38.4
2018-08-12T08:20:18.023Z,38.6
2018-08-12T08:21:08.068Z,38.8
2018-08-12T08:21:58.362Z,38.9
2018-08-12T08:22:47.422Z,39.1
2018-08-12T08:23:37.436Z,39.3
2018-08-12T08:24:27.799Z,39.5
2018-08-12T08:25:17.760Z,39.6
2018-08-12T08:26:08.205Z,39.8
2018-08-12T08:26:57.974Z,39.9
2018-08-12T08:27:47.798Z,40.1
2018-08-12T08:28:37.651Z,40.2
2018-08-12T08:29:28.133Z,40.4
2018-08-12T08:30:18.272Z,40.5
2018-08-12T08:31:08.398Z,40.7
2018-08-12T08:32:02.524Z,40.8
2018-08-12T08:32:48.628Z,40.9
2018-08-12T08:33:39.238Z,41
2018-08-12T08:34:29.370Z,41.1
2018-08-12T08:35:19.373Z,41.2
2018-08-12T08:36:08.375Z,41.4
2018-08-12T08:36:59.203Z,41.4
2018-08-12T08:37:48.822Z,41.6
2018-08-12T08:38:39.372Z,41.7
2018-08-12T08:39:28.875Z,41.8
2018-08-12T08:40:18.298Z,41.9
2018-08-12T08:41:09.252Z,41.8
2018-08-12T08:41:59.621Z,41.9
2018-08-12T08:42:49.668Z,41.9
2018-08-12T08:43:39.284Z,42.1
2018-08-12T08:44:29.800Z,42.3
2018-08-12T08:45:20.159Z,42.4
2018-08-12T08:46:10.226Z,42.5
2018-08-12T08:46:59.974Z,42.6
2018-08-12T08:47:50.413Z,42.8
2018-08-12T08:48:40.141Z,42.9
2018-08-12T08:49:30.435Z,43.1
2018-08-12T08:50:19.943Z,43.3
2018-08-12T08:51:10.032Z,43.4
2018-08-12T08:52:00.162Z,43.6
2018-08-12T08:52:50.151Z,43.8
2018-08-12T08:53:39.057Z,44
2018-08-12T08:54:30.602Z,44.1
2018-08-12T08:55:19.488Z,44.4
2018-08-12T08:56:11.592Z,44.5
2018-08-12T08:57:00.586Z,44.7
2018-08-12T08:57:50.868Z,44.9
2018-08-12T08:58:40.880Z,45.1
2018-08-12T08:59:31.283Z,45.3
2018-08-12T09:00:20.439Z,45.5
2018-08-12T09:01:11.244Z,45.8
2018-08-12T09:02:00.928Z,46
2018-08-12T09:02:51.211Z,46.2
2018-08-12T09:03:40.998Z,46.4
2018-08-12T09:04:31.105Z,46.6
2018-08-12T09:20:57.342Z,50
2018-08-12T09:21:46.688Z,50.1
2018-08-12T09:22:37.479Z,50.3
2018-08-12T09:23:27.066Z,50.4
2018-08-12T09:24:17.130Z,50.5
2018-08-12T09:25:07.677Z,50.7
2018-08-12T09:25:56.963Z,50.9
2018-08-12T09:26:47.490Z,51.1
2018-08-12T09:27:37.635Z,51.1
2018-08-12T09:28:27.658Z,51.1
2018-08-12T09:29:17.565Z,51
2018-08-12T09:30:07.505Z,51.1
2018-08-12T09:30:57.353Z,51.4
2018-08-12T09:31:47.358Z,51.6
2018-08-12T09:32:37.701Z,51.8
2018-08-12T09:33:27.860Z,51.9
2018-08-12T09:34:17.336Z,52.1
2018-08-12T09:35:08.485Z,52.3
2018-08-12T09:35:58.232Z,52.5
2018-08-12T09:36:47.755Z,52.7
2018-08-12T09:37:38.365Z,52.9
2018-08-12T09:38:28.735Z,53.1
2018-08-12T09:39:18.814Z,53.2
2018-08-12T09:40:08.015Z,53.4
2018-08-12T09:40:58.937Z,53.6
2018-08-12T09:41:48.184Z,53.7
2018-08-12T09:42:39.048Z,53.9
2018-08-12T09:43:29.178Z,54
2018-08-12T09:44:19.045Z,54.2
2018-08-12T09:45:08.409Z,54.3
2018-08-12T09:45:58.783Z,54.4
2018-08-12T09:46:49.116Z,54.6
2018-08-12T09:47:38.336Z,54.7
2018-08-12T09:48:28.957Z,54.8
2018-08-12T09:49:19.112Z,54.9
2018-08-12T09:50:09.652Z,54.9
2018-08-12T09:50:59.162Z,54.9
2018-08-12T09:51:51.601Z,54.9
2018-08-12T09:52:39.858Z,54.8
2018-08-12T09:53:28.575Z,54.7
2018-08-12T09:54:19.450Z,54.6
2018-08-12T09:55:09.213Z,54.6
2018-08-12T09:56:00.102Z,54.6
2018-08-12T09:56:50.119Z,54.8
2018-08-12T09:57:40.228Z,54.9
2018-08-12T09:58:30.893Z,54.8
2018-08-12T09:59:20.065Z,54.9
2018-08-12T10:00:10.500Z,55.1
2018-08-12T10:00:59.629Z,55.4
2018-08-12T10:01:50.537Z,55.7
2018-08-12T10:02:40.324Z,55.8
2018-08-12T10:03:30.657Z,56.1
2018-08-12T10:04:20.499Z,56.2
2018-08-12T10:05:10.042Z,56.3
2018-08-12T10:06:00.324Z,56.4
2018-08-12T10:06:50.684Z,56.3
2018-08-12T10:07:41.574Z,56.1
2018-08-12T10:08:30.571Z,55.9
2018-08-12T10:09:19.870Z,55.8
2018-08-12T10:10:10.724Z,55.6
2018-08-12T10:11:00.735Z,55.6
2018-08-12T10:11:50.274Z,55.4
2018-08-12T10:12:41.454Z,55.3
2018-08-12T10:13:30.931Z,55.5
2018-08-12T10:14:21.253Z,55.9
2018-08-12T10:15:11.321Z,56.3
2018-08-12T10:16:01.118Z,56.5
2018-08-12T10:16:50.334Z,56.6
2018-08-12T10:17:40.684Z,56.8
2018-08-12T10:18:31.837Z,56.9
2018-08-12T10:19:21.911Z,57
2018-08-12T10:20:11.673Z,57.2
2018-08-12T10:21:01.291Z,57.3
2018-08-12T10:21:52.090Z,57.4
2018-08-12T10:22:42.205Z,57.6
2018-08-12T10:23:32.219Z,57.7
2018-08-12T10:25:11.804Z,57.9
2018-08-12T10:26:01.859Z,58
2018-08-12T10:26:51.716Z,58.1
2018-08-12T10:27:41.994Z,58.2
2018-08-12T10:28:31.274Z,58.3
2018-08-12T10:29:23.729Z,58.4
2018-08-12T10:30:12.758Z,58.5
2018-08-12T10:31:52.895Z,58.7
2018-08-12T10:32:42.909Z,58.8
2018-08-12T10:33:32.456Z,58.8
2018-08-12T10:34:22.478Z,58.8
2018-08-12T10:35:12.831Z,58.8
2018-08-12T10:36:03.198Z,58.9
2018-08-12T10:36:53.224Z,59.1
2018-08-12T10:37:43.049Z,59.2
2018-08-12T10:38:33.076Z,59.3
2018-08-12T10:39:23.433Z,59.4
2018-08-12T10:40:12.943Z,59.4
2018-08-12T10:41:03.543Z,59.5
2018-08-12T10:41:53.396Z,59.6
2018-08-12T10:42:43.732Z,59.6
2018-08-12T10:43:32.995Z,59.8
2018-08-12T10:44:24.702Z,59.8
2018-08-12T10:45:13.716Z,59.8
2018-08-12T10:46:03.691Z,59.9
2018-08-12T10:46:53.512Z,60
2018-08-12T10:47:43.869Z,60.1
2018-08-12T10:48:33.371Z,60.1
2018-08-12T10:49:24.062Z,60.1
2018-08-12T10:50:13.816Z,60
2018-08-12T10:51:04.588Z,60
2018-08-12T10:51:53.984Z,59.9
2018-08-12T10:52:44.281Z,59.9
2018-08-12T10:53:34.659Z,60.1
2018-08-12T10:54:24.757Z,60.3
2018-08-12T10:55:14.713Z,60.4
2018-08-12T10:56:03.921Z,60.4
2018-08-12T10:56:54.275Z,60.6
2018-08-12T10:57:44.965Z,60.6
2018-08-12T10:58:33.821Z,60.7
2018-08-12T10:59:26.089Z,60.8
2018-08-12T11:00:14.008Z,60.9
2018-08-12T11:01:04.568Z,60.9
2018-08-12T11:01:54.689Z,61
2018-08-12T11:02:45.336Z,61.1
2018-08-12T11:03:35.086Z,61.1
2018-08-12T11:04:25.389Z,61.2
2018-08-12T11:05:15.480Z,61.3
2018-08-12T11:06:05.350Z,61.3
2018-08-12T11:06:54.891Z,61.2
2018-08-12T11:07:45.425Z,61.3
2018-08-12T11:08:34.352Z,61.3
2018-08-12T11:09:24.419Z,61.4
2018-08-12T11:10:15.879Z,61.5
2018-08-12T11:11:05.919Z,61.6
2018-08-12T11:11:55.163Z,61.7
2018-08-12T11:12:47.538Z,61.8
2018-08-12T11:13:35.890Z,61.8
2018-08-12T11:14:26.173Z,61.8
2018-08-12T11:15:14.583Z,61.8
2018-08-12T11:16:06.073Z,61.6
2018-08-12T11:16:55.845Z,61.4
2018-08-12T11:17:46.251Z,61.2
2018-08-12T11:18:36.271Z,60.9
2018-08-12T11:19:26.378Z,60.9
2018-08-12T11:20:16.399Z,60.8
2018-08-12T11:21:06.179Z,60.7
2018-08-12T11:21:56.568Z,60.6
2018-08-12T11:22:46.906Z,60.5
2018-08-12T11:23:36.904Z,60.3
2018-08-12T11:24:26.419Z,60.3
2018-08-12T11:25:17.044Z,60.4
2018-08-12T11:26:06.600Z,60.8
2018-08-12T11:26:56.916Z,61.1
2018-08-12T11:27:46.460Z,61.3
2018-08-12T11:28:38.398Z,61.4
2018-08-12T11:29:27.113Z,61.5
2018-08-12T11:30:17.148Z,61.6
2018-08-12T11:31:07.605Z,61.7
2018-08-12T11:31:56.725Z,61.8
2018-08-12T11:32:46.816Z,61.9
2018-08-12T11:33:37.414Z,62
2018-08-12T11:34:27.769Z,62
2018-08-12T11:35:17.542Z,62.1
2018-08-12T11:36:07.137Z,62.2
2018-08-12T11:36:57.411Z,62.3
2018-08-12T11:37:48.072Z,62.3
2018-08-12T11:38:37.801Z,62.4
2018-08-12T11:39:27.869Z,62.4
2018-08-12T11:40:17.994Z,62.4
2018-08-12T11:41:08.303Z,62.4
2018-08-12T11:41:57.515Z,62.5
2018-08-12T11:42:48.428Z,62.5
2018-08-12T11:43:37.323Z,62.6
2018-08-12T11:44:27.988Z,62.6
2018-08-12T11:45:18.641Z,62.7
2018-08-12T11:46:08.394Z,62.8
2018-08-12T11:46:58.431Z,62.8
2018-08-12T11:47:48.800Z,62.8
2018-08-12T11:48:38.832Z,62.9
2018-08-12T11:49:28.639Z,62.9
2018-08-12T11:50:17.885Z,62.9
2018-08-12T11:51:09.043Z,62.9
2018-08-12T11:51:59.083Z,63
2018-08-12T11:52:48.630Z,63.1
2018-08-12T11:53:39.276Z,63.1
2018-08-12T11:54:28.756Z,63.1
2018-08-12T11:55:19.120Z,63.1
2018-08-12T11:56:08.958Z,63.1
2018-08-12T11:56:59.972Z,63.2
2018-08-12T11:57:48.857Z,63.3
2018-08-12T11:58:39.397Z,63.3
2018-08-12T11:59:29.474Z,63.3
2018-08-12T12:00:18.395Z,63.4
2018-08-12T12:01:09.580Z,63.4
2018-08-12T12:01:59.638Z,63.4